Time;durP1;ratioP1;P1;durP2;ratioP2;P2;SDS_P1;SDS_P2;PMS_P1;PMS_P2;Temp;Humidity;BMP_temperature;BMP_pressure;BME280_temperature;BME280_humidity;BME280_pressure;Samples;Min_cycle;Max_cycle;Signal;HPM_P1;HPM_P2
2021/07/24 00:02:05;;;;;;;;;19.75;15.75;;;;;28.40;41.26;100285.16;5006642;28;51038;-57
2021/07/24 00:04:30;;;;;;;;;14.75;14.75;;;;;28.40;41.07;100284.34;4997504;28;50926;-55
2021/07/24 00:06:59;;;;;;;;;20.75;15.75;;;;;28.39;41.76;100282.69;5015353;28;52366;-56
2021/07/24 00:09:24;;;;;;;;;17.00;15.00;;;;;28.40;41.46;100295.47;5009501;28;50967;-56
2021/07/24 00:11:49;;;;;;;;;18.00;17.00;;;;;28.37;41.30;100301.63;4994621;28;52221;-56
2021/07/24 00:14:15;;;;;;;;;19.75;18.25;;;;;28.37;41.61;100299.69;5015373;28;51216;-56
2021/07/24 00:16:40;;;;;;;;;18.25;15.50;;;;;28.36;41.20;100300.81;5014837;28;51121;-57
2021/07/24 00:19:05;;;;;;;;;16.00;14.25;;;;;28.35;41.76;100304.72;5012009;28;51123;-57
2021/07/24 00:21:31;;;;;;;;;13.75;12.25;;;;;28.33;41.42;100290.22;5007086;28;51396;-57
2021/07/24 00:23:56;;;;;;;;;16.25;15.25;;;;;28.33;40.86;100267.09;5015844;28;51057;-56
2021/07/24 00:26:21;;;;;;;;;16.25;15.75;;;;;28.32;41.63;100277.41;5008529;28;52626;-57
2021/07/24 00:28:47;;;;;;;;;13.75;12.00;;;;;28.32;41.19;100279.38;5015836;28;51156;-58
2021/07/24 00:31:12;;;;;;;;;19.25;17.25;;;;;28.30;41.39;100292.75;5001758;28;51442;-57
2021/07/24 00:33:37;;;;;;;;;16.00;13.50;;;;;28.30;41.67;100281.63;4997072;28;51252;-57
2021/07/24 00:36:03;;;;;;;;;16.50;16.25;;;;;28.29;41.02;100278.00;5003790;28;51642;-57
2021/07/24 00:38:28;;;;;;;;;16.25;16.25;;;;;28.28;41.31;100287.47;5014223;28;51174;-57
2021/07/24 00:40:57;;;;;;;;;20.00;14.50;;;;;28.27;41.53;100299.72;4998239;28;52188;-56
2021/07/24 00:43:30;;;;;;;;;18.00;15.50;;;;;28.27;41.08;100290.53;4996999;28;51092;-57
2021/07/24 00:45:57;;;;;;;;;14.25;14.25;;;;;28.25;41.26;100285.25;5004549;28;51043;-57
2021/07/24 00:48:23;;;;;;;;;18.00;13.25;;;;;28.25;41.02;100285.25;4997130;28;51062;-57
2021/07/24 00:50:51;;;;;;;;;20.00;16.75;;;;;28.24;40.80;100294.69;5010407;28;51246;-56
2021/07/24 00:53:24;;;;;;;;;12.25;12.25;;;;;28.24;40.98;100305.84;4997393;28;51087;-57
2021/07/24 00:55:53;;;;;;;;;14.25;14.25;;;;;28.24;41.68;100302.22;5009042;28;52024;-57
2021/07/24 00:58:28;;;;;;;;;14.50;13.25;;;;;28.23;41.00;100297.78;5014141;28;51009;-57
2021/07/24 01:00:54;;;;;;;;;14.00;12.00;;;;;28.21;41.54;100300.03;5015447;28;51060;-57
2021/07/24 01:03:20;;;;;;;;;16.50;15.50;;;;;28.19;41.08;100306.72;4996943;28;51195;-57
2021/07/24 01:05:50;;;;;;;;;16.00;13.50;;;;;28.19;41.29;100301.16;5004531;28;51456;-57
2021/07/24 01:08:15;;;;;;;;;12.75;11.00;;;;;28.18;41.32;100288.34;4999437;28;51212;-58
2021/07/24 01:10:41;;;;;;;;;19.00;15.75;;;;;28.19;41.17;100278.03;5013528;28;51213;-57
2021/07/24 01:13:06;;;;;;;;;13.00;13.00;;;;;28.17;41.52;100281.09;5001658;28;51139;-57
2021/07/24 01:15:32;;;;;;;;;17.00;14.75;;;;;28.17;41.30;100269.13;5012778;28;52002;-57
2021/07/24 01:17:57;;;;;;;;;16.75;13.25;;;;;28.16;41.67;100267.47;5010929;28;51150;-57
2021/07/24 01:20:25;;;;;;;;;21.25;16.00;;;;;28.16;41.63;100270.25;5008768;28;51188;-57
2021/07/24 01:22:50;;;;;;;;;18.00;16.00;;;;;28.16;41.87;100267.47;5008323;28;51158;-58
2021/07/24 01:25:16;;;;;;;;;14.00;12.00;;;;;28.15;41.04;100261.09;5011745;28;51097;-58
2021/07/24 01:27:42;;;;;;;;;17.25;14.75;;;;;28.14;41.52;100281.69;4996906;28;51085;-59
2021/07/24 01:30:10;;;;;;;;;13.00;12.50;;;;;28.14;41.24;100286.44;5004411;28;51904;-57
2021/07/24 01:32:35;;;;;;;;;20.50;15.75;;;;;28.13;42.00;100291.13;5013957;28;51429;-57
2021/07/24 01:35:01;;;;;;;;;15.75;14.50;;;;;28.13;41.60;100296.72;5009788;28;51341;-57
2021/07/24 01:37:26;;;;;;;;;17.00;11.50;;;;;28.13;41.77;100312.59;5007507;28;53178;-56
2021/07/24 01:39:51;;;;;;;;;14.00;12.00;;;;;28.12;41.74;100317.31;5001704;28;51167;-55
2021/07/24 01:42:20;;;;;;;;;16.75;15.25;;;;;28.11;42.01;100303.69;5001907;28;51085;-53
2021/07/24 01:44:45;;;;;;;;;15.00;12.75;;;;;28.10;42.39;100308.44;5002888;28;55662;-57
2021/07/24 01:47:10;;;;;;;;;13.25;13.00;;;;;28.10;42.65;100310.38;5013608;28;55037;-55
2021/07/24 01:52:46;;;;;;;;;17.50;13.50;;;;;28.08;42.83;100316.25;4992834;28;51087;-56
2021/07/24 01:55:16;;;;;;;;;11.00;10.75;;;;;28.08;42.49;100318.19;4995583;28;51092;-56
2021/07/24 01:57:43;;;;;;;;;15.75;14.75;;;;;28.06;43.02;100320.44;4997197;28;51392;-56
2021/07/24 02:00:10;;;;;;;;;13.50;10.50;;;;;28.06;42.91;100318.47;5005538;28;51325;-56
2021/07/24 02:02:36;;;;;;;;;14.00;10.50;;;;;28.05;43.65;100300.13;5002192;28;51712;-56
2021/07/24 02:05:04;;;;;;;;;13.50;12.00;;;;;28.05;43.14;100311.25;5027052;28;53404;-56
2021/07/24 02:07:36;;;;;;;;;15.75;12.25;;;;;28.05;44.09;100308.47;5013933;28;51159;-56
2021/07/24 02:10:03;;;;;;;;;13.75;13.00;;;;;28.05;44.29;100318.78;5010950;28;51789;-56
2021/07/24 02:12:28;;;;;;;;;12.50;10.75;;;;;28.04;43.68;100323.50;5005501;28;51287;-58
2021/07/24 02:14:53;;;;;;;;;14.00;11.50;;;;;28.03;44.38;100324.59;5013784;28;51850;-54
2021/07/24 02:17:19;;;;;;;;;11.25;11.25;;;;;28.03;43.95;100324.59;5015407;28;51041;-56
2021/07/24 02:19:44;;;;;;;;;10.00;10.00;;;;;28.03;44.18;100324.59;5008507;28;51178;-56
2021/07/24 02:22:09;;;;;;;;;12.50;12.50;;;;;28.02;44.17;100336.84;5012753;28;51389;-55
2021/07/24 02:24:35;;;;;;;;;8.00;7.25;;;;;28.02;44.50;100341.59;5011188;28;57010;-56
2021/07/24 02:27:06;;;;;;;;;10.50;7.75;;;;;28.02;44.29;100339.66;5010511;28;51093;-56
2021/07/24 02:29:32;;;;;;;;;9.25;9.00;;;;;28.01;44.87;100335.19;5001710;28;51118;-55
2021/07/24 02:31:57;;;;;;;;;11.75;10.00;;;;;28.01;44.14;100345.50;4997211;28;51346;-56
2021/07/24 02:34:23;;;;;;;;;8.00;6.50;;;;;27.99;44.61;100340.22;5013188;28;57136;-56
2021/07/24 02:36:48;;;;;;;;;11.00;8.00;;;;;27.99;44.25;100343.00;5013239;28;51281;-55
2021/07/24 02:39:13;;;;;;;;;8.25;8.25;;;;;27.99;44.98;100342.19;5011462;28;51147;-56
2021/07/24 02:41:38;;;;;;;;;5.00;5.00;;;;;27.98;44.64;100341.34;4997387;28;51145;-56
2021/07/24 02:44:04;;;;;;;;;7.50;7.50;;;;;27.98;44.92;100341.34;5001659;28;51673;-56
2021/07/24 02:46:29;;;;;;;;;7.00;4.50;;;;;27.97;44.57;100342.47;5014890;28;50952;-56
2021/07/24 02:48:54;;;;;;;;;4.50;3.75;;;;;27.95;44.58;100344.69;5011616;28;51128;-56
2021/07/24 02:51:20;;;;;;;;;7.00;6.25;;;;;27.94;44.42;100351.41;5011523;28;51424;-56
2021/07/24 02:53:45;;;;;;;;;9.00;5.50;;;;;27.93;44.01;100337.72;4996488;28;51583;-57
2021/07/24 02:56:10;;;;;;;;;7.00;5.00;;;;;27.93;44.25;100334.94;5004515;28;51091;-55
2021/07/24 02:58:36;;;;;;;;;4.25;3.75;;;;;27.92;44.43;100325.78;5011338;28;54258;-56
2021/07/24 03:01:06;;;;;;;;;4.25;4.25;;;;;27.91;44.74;100321.31;4996559;28;50895;-55
2021/07/24 03:03:31;;;;;;;;;4.00;4.00;;;;;27.89;44.38;100329.97;4996309;28;53106;-56
2021/07/24 03:05:57;;;;;;;;;6.00;6.00;;;;;27.88;44.32;100338.59;4995194;28;55591;-56
2021/07/24 03:08:22;;;;;;;;;5.00;5.00;;;;;27.87;44.27;100336.94;5000869;28;51043;-56
2021/07/24 03:10:47;;;;;;;;;5.00;4.00;;;;;27.86;43.75;100343.63;5012562;28;51105;-56
2021/07/24 03:13:13;;;;;;;;;6.00;6.00;;;;;27.84;44.33;100345.88;5001625;28;51421;-56
2021/07/24 03:15:38;;;;;;;;;5.75;5.00;;;;;27.83;43.90;100345.03;4995196;28;51478;-57
2021/07/24 03:18:03;;;;;;;;;9.00;6.00;;;;;27.83;44.49;100358.13;4996286;28;59502;-56
2021/07/24 03:20:28;;;;;;;;;5.25;3.25;;;;;27.81;44.38;100360.31;5011097;28;51332;-56
2021/07/24 03:22:55;;;;;;;;;6.00;6.00;;;;;27.80;43.82;100376.19;4997763;28;60647;-56
2021/07/24 03:25:21;;;;;;;;;5.75;2.50;;;;;27.79;43.66;100360.63;5000898;28;51120;-56
2021/07/24 03:27:46;;;;;;;;;6.00;5.00;;;;;27.78;43.69;100377.59;5006410;28;51439;-58
2021/07/24 03:30:12;;;;;;;;;5.25;5.25;;;;;27.78;43.51;100385.94;5012631;28;50914;-56
2021/07/24 03:32:37;;;;;;;;;3.25;3.00;;;;;27.76;43.57;100379.84;5016498;28;51541;-55
2021/07/24 03:35:03;;;;;;;;;4.50;4.00;;;;;27.74;44.00;100376.50;5016935;28;51545;-56
2021/07/24 03:37:28;;;;;;;;;4.00;4.00;;;;;27.73;44.11;100375.69;5016334;28;51182;-57
2021/07/24 03:39:53;;;;;;;;;7.00;4.25;;;;;27.72;43.47;100395.41;5009742;28;51127;-56
2021/07/24 03:42:18;;;;;;;;;4.00;4.00;;;;;27.71;43.52;100407.66;5009650;28;51070;-56
2021/07/24 03:44:44;;;;;;;;;5.75;5.00;;;;;27.69;44.04;100402.38;5003555;28;52454;-57
2021/07/24 03:47:09;;;;;;;;;5.25;3.00;;;;;27.68;43.44;100417.41;5015209;28;51075;-57
2021/07/24 03:49:34;;;;;;;;;5.00;5.00;;;;;27.67;44.04;100426.88;5016398;28;51475;-57
2021/07/24 03:52:00;;;;;;;;;6.50;5.50;;;;;27.67;44.04;100442.75;5003562;28;50968;-56
2021/07/24 03:54:27;;;;;;;;;4.75;4.50;;;;;27.65;43.40;100445.81;5013382;28;51213;-56
2021/07/24 03:56:52;;;;;;;;;4.00;4.00;;;;;27.63;43.99;100445.22;5015687;28;51233;-56
2021/07/24 03:59:17;;;;;;;;;7.00;5.50;;;;;27.63;43.84;100458.31;5014670;28;51207;-56
2021/07/24 04:01:43;;;;;;;;;4.00;4.00;;;;;27.63;43.93;100463.88;5015683;28;51693;-56
2021/07/24 04:04:09;;;;;;;;;6.00;4.75;;;;;27.61;43.60;100453.00;4999949;28;51073;-56
2021/07/24 04:06:34;;;;;;;;;5.00;5.00;;;;;27.59;43.96;100453.28;5009827;28;51127;-55
2021/07/24 04:09:01;;;;;;;;;5.75;4.50;;;;;27.58;43.33;100459.97;5017215;28;51287;-57
2021/07/24 04:11:28;;;;;;;;;3.50;3.25;;;;;27.56;44.16;100473.31;5001490;28;51096;-56
2021/07/24 04:13:54;;;;;;;;;7.00;5.25;;;;;27.55;44.02;100488.34;4995130;28;51362;-56
2021/07/24 04:16:19;;;;;;;;;5.00;5.00;;;;;27.53;43.50;100490.56;4998741;28;51169;-56
2021/07/24 04:18:45;;;;;;;;;3.00;3.00;;;;;27.53;44.05;100485.00;5000123;28;51250;-56
2021/07/24 04:21:10;;;;;;;;;3.50;3.50;;;;;27.53;44.01;100475.84;5003121;28;51766;-56
2021/07/24 04:23:36;;;;;;;;;7.00;6.00;;;;;27.51;43.52;100483.59;5013498;28;51015;-55
2021/07/24 04:26:01;;;;;;;;;5.50;4.25;;;;;27.51;43.39;100486.38;5002457;28;51143;-56
2021/07/24 04:28:26;;;;;;;;;5.00;3.50;;;;;27.50;43.64;100481.94;5007306;28;51231;-56
2021/07/24 04:30:52;;;;;;;;;5.00;4.25;;;;;27.49;43.64;100469.13;5008518;28;51709;-56
2021/07/24 04:33:17;;;;;;;;;6.25;5.25;;;;;27.48;43.56;100468.31;4999290;28;51061;-56
2021/07/24 04:35:47;;;;;;;;;5.75;4.00;;;;;27.46;44.31;100476.09;4998928;28;51226;-57
2021/07/24 04:38:14;;;;;;;;;5.00;3.75;;;;;27.47;44.17;100474.16;5003113;28;51225;-56
2021/07/24 04:40:39;;;;;;;;;7.75;7.00;;;;;27.45;43.79;100480.00;5005354;28;53112;-56
2021/07/24 04:43:05;;;;;;;;;4.00;3.50;;;;;27.44;43.73;100480.28;5017014;28;51121;-57
2021/07/24 04:45:30;;;;;;;;;7.00;5.50;;;;;27.44;44.30;100483.06;5016993;28;51070;-56
2021/07/24 04:47:56;;;;;;;;;5.00;4.50;;;;;27.41;43.68;100498.38;5000574;28;51133;-56
2021/07/24 04:50:22;;;;;;;;;8.50;4.50;;;;;27.41;44.23;100497.50;5009217;28;60625;-57
2021/07/24 04:52:47;;;;;;;;;3.50;3.50;;;;;27.40;44.08;100487.50;5008886;28;51108;-57
2021/07/24 04:55:12;;;;;;;;;5.25;5.25;;;;;27.39;43.76;100492.22;4998427;28;51117;-57
2021/07/24 04:57:38;;;;;;;;;9.50;6.25;;;;;27.39;44.20;100491.38;4997607;28;51160;-57
2021/07/24 05:00:08;;;;;;;;;4.50;3.75;;;;;27.38;43.54;100498.06;5001130;28;52288;-57
2021/07/24 05:02:35;;;;;;;;;3.75;3.75;;;;;27.37;44.27;100510.31;5014607;28;51396;-57
2021/07/24 05:05:02;;;;;;;;;4.25;4.25;;;;;27.35;43.64;100518.94;5003719;28;51123;-57
2021/07/24 05:07:29;;;;;;;;;6.50;5.50;;;;;27.35;44.20;100520.88;4997555;28;51324;-57
2021/07/24 05:09:54;;;;;;;;;7.50;5.50;;;;;27.33;43.63;100529.50;5003614;28;51194;-57
2021/07/24 05:12:19;;;;;;;;;7.00;6.00;;;;;27.31;44.08;100517.81;5002469;28;51129;-58
2021/07/24 05:14:45;;;;;;;;;5.00;5.00;;;;;27.30;44.29;100519.78;5014931;28;51519;-58
2021/07/24 05:17:12;;;;;;;;;7.75;6.00;;;;;27.28;43.90;100526.69;5016393;28;50885;-58
2021/07/24 05:19:42;;;;;;;;;3.25;3.25;;;;;27.28;44.38;100540.59;5007330;28;51235;-57
2021/07/24 05:22:09;;;;;;;;;6.75;6.75;;;;;27.27;44.13;100533.38;5003388;28;51213;-56
2021/07/24 05:24:36;;;;;;;;;6.00;6.00;;;;;27.26;43.94;100517.81;4998045;28;51060;-57
2021/07/24 05:27:02;;;;;;;;;4.75;4.75;;;;;27.25;44.43;100536.44;5004578;28;52760;-56
2021/07/24 05:29:28;;;;;;;;;5.00;4.25;;;;;27.24;44.06;100536.72;4997737;28;51860;-57
2021/07/24 05:31:53;;;;;;;;;6.75;6.75;;;;;27.24;43.83;100534.78;5013895;28;50978;-56
2021/07/24 05:34:19;;;;;;;;;6.75;6.75;;;;;27.22;44.60;100530.59;5016300;28;51363;-56
2021/07/24 05:36:44;;;;;;;;;5.50;5.50;;;;;27.21;43.88;100528.94;5003224;28;51048;-57
2021/07/24 05:39:10;;;;;;;;;8.50;6.50;;;;;27.20;44.13;100532.78;5003975;28;50940;-56
2021/07/24 05:41:35;;;;;;;;;6.50;5.75;;;;;27.19;44.47;100531.13;5009930;28;51184;-57
2021/07/24 05:44:01;;;;;;;;;3.00;1.50;;;;;27.17;44.04;100527.78;4984079;28;51280;-57
2021/07/24 05:46:26;;;;;;;;;6.00;4.25;;;;;27.15;44.31;100522.50;4997137;28;51034;-57
2021/07/24 05:48:51;;;;;;;;;7.75;7.75;;;;;27.15;44.67;100532.81;5000275;28;51146;-57
2021/07/24 05:51:17;;;;;;;;;7.00;7.00;;;;;27.13;44.27;100527.53;5000940;28;50980;-57
2021/07/24 05:53:42;;;;;;;;;7.00;6.00;;;;;27.12;44.08;100525.84;4985740;28;51387;-57
2021/07/24 05:56:07;;;;;;;;;6.00;6.00;;;;;27.11;45.38;100531.69;4992800;28;51025;-58
2021/07/24 05:58:33;;;;;;;;;7.00;5.75;;;;;27.12;47.69;100536.13;5014029;28;51284;-57
2021/07/24 06:00:58;;;;;;;;;5.50;5.00;;;;;27.13;45.70;100526.69;5005624;28;51276;-57
2021/07/24 06:03:23;;;;;;;;;6.25;6.25;;;;;27.13;45.10;100538.63;5016484;28;50984;-57
2021/07/24 06:05:49;;;;;;;;;7.00;7.00;;;;;27.13;45.06;100532.25;5001202;28;51115;-58
2021/07/24 06:08:14;;;;;;;;;10.25;7.25;;;;;27.12;45.12;100525.00;4996924;28;51716;-57
2021/07/24 06:10:39;;;;;;;;;6.00;6.00;;;;;27.10;44.77;100519.72;5015492;28;51064;-57
2021/07/24 06:13:05;;;;;;;;;6.50;5.75;;;;;27.09;44.83;100523.59;5002392;28;51353;-57
2021/07/24 06:15:30;;;;;;;;;6.00;6.00;;;;;27.09;44.52;100526.38;5000920;28;51127;-58
2021/07/24 06:17:56;;;;;;;;;6.25;5.75;;;;;27.07;44.72;100516.66;5015889;28;58503;-58
2021/07/24 06:20:22;;;;;;;;;6.00;5.00;;;;;27.05;44.62;100516.94;5015794;28;51400;-58
2021/07/24 06:22:47;;;;;;;;;8.00;6.00;;;;;27.05;44.92;100525.25;5016450;28;51144;-62
2021/07/24 06:25:12;;;;;;;;;4.25;4.25;;;;;27.05;44.98;100522.50;5000671;28;51330;-57
2021/07/24 06:27:38;;;;;;;;;6.50;5.75;;;;;27.04;45.06;100526.38;4995959;28;51813;-57
2021/07/24 06:30:04;;;;;;;;;7.00;5.00;;;;;27.04;44.75;100512.47;5007876;28;51497;-57
2021/07/24 06:32:30;;;;;;;;;4.25;4.25;;;;;27.04;44.67;100530.00;5015904;28;51178;-58
2021/07/24 06:34:56;;;;;;;;;7.00;7.00;;;;;27.02;44.47;100526.66;5004367;28;51219;-58
2021/07/24 06:37:21;;;;;;;;;6.50;4.50;;;;;27.00;44.49;100508.56;4995586;28;58670;-57
2021/07/24 06:39:46;;;;;;;;;6.00;5.00;;;;;26.99;44.63;100512.41;4995836;28;54582;-58
2021/07/24 06:42:11;;;;;;;;;6.25;5.00;;;;;26.99;44.27;100518.84;4995899;28;51177;-58
2021/07/24 06:44:37;;;;;;;;;6.00;5.00;;;;;27.01;44.43;100516.63;4996289;28;51130;-58
2021/07/24 06:47:02;;;;;;;;;8.25;6.50;;;;;26.99;44.57;100516.06;4995910;28;51955;-58
2021/07/24 06:49:28;;;;;;;;;5.25;4.00;;;;;27.01;44.36;100521.34;5013147;28;51088;-58
2021/07/24 06:51:53;;;;;;;;;6.00;4.25;;;;;26.99;44.37;100510.50;5015861;28;51064;-58
2021/07/24 06:54:18;;;;;;;;;6.00;5.75;;;;;26.99;44.42;100523.53;5001863;28;51239;-58
2021/07/24 06:56:43;;;;;;;;;3.50;3.25;;;;;26.97;43.94;100518.25;4997005;28;51691;-58
2021/07/24 06:59:09;;;;;;;;;4.75;4.75;;;;;26.97;44.27;100525.75;4998737;28;51217;-57
2021/07/24 07:01:34;;;;;;;;;8.00;5.00;;;;;26.97;44.24;100522.97;4999299;28;51154;-58
2021/07/24 07:03:59;;;;;;;;;5.75;5.25;;;;;26.95;44.37;100526.03;4997732;28;51152;-58
2021/07/24 07:06:25;;;;;;;;;3.75;3.75;;;;;26.95;44.17;100519.66;4999105;28;51882;-58
2021/07/24 07:08:50;;;;;;;;;5.00;4.00;;;;;26.93;44.13;100519.91;5017614;28;51043;-58
2021/07/24 07:11:15;;;;;;;;;2.25;2.25;;;;;26.93;43.98;100519.91;5018427;28;51265;-58
2021/07/24 07:13:41;;;;;;;;;5.00;4.25;;;;;26.92;43.38;100518.25;5000697;28;51297;-58
2021/07/24 07:16:08;;;;;;;;;3.00;3.00;;;;;26.93;43.67;100521.88;4999028;28;51668;-58
2021/07/24 07:18:34;;;;;;;;;6.25;5.25;;;;;26.91;43.30;100524.94;5014387;28;50963;-59
2021/07/24 07:20:59;;;;;;;;;4.50;4.00;;;;;26.92;43.74;100523.81;5019068;28;50937;-58
2021/07/24 07:23:25;;;;;;;;;3.25;3.25;;;;;26.93;43.42;100519.09;5019236;28;50980;-58
2021/07/24 07:25:50;;;;;;;;;6.00;4.75;;;;;26.93;43.82;100522.72;5017913;28;51898;-58
2021/07/24 07:28:15;;;;;;;;;7.25;4.00;;;;;26.94;43.42;100518.81;5005043;28;51186;-58
2021/07/24 07:30:41;;;;;;;;;1.50;1.25;;;;;26.96;43.56;100521.31;4998568;28;51122;-58
2021/07/24 07:33:06;;;;;;;;;5.25;3.75;;;;;26.97;44.00;100528.53;4998989;28;50999;-58
2021/07/24 07:35:31;;;;;;;;;5.50;3.00;;;;;26.98;43.36;100528.25;4998309;28;52860;-59
2021/07/24 07:37:59;;;;;;;;;4.00;4.00;;;;;26.98;44.13;100539.38;5002313;28;51132;-59
2021/07/24 07:40:24;;;;;;;;;6.00;3.50;;;;;27.01;45.07;100540.81;4988205;28;51134;-58
2021/07/24 07:42:50;;;;;;;;;6.00;5.00;;;;;27.02;44.92;100542.50;4983862;28;51322;-58
2021/07/24 07:45:15;;;;;;;;;5.25;4.00;;;;;27.02;44.68;100542.50;4994695;28;59728;-59
2021/07/24 07:47:40;;;;;;;;;6.00;4.00;;;;;27.02;44.35;100537.78;4999295;28;51150;-56
2021/07/24 07:50:07;;;;;;;;;5.00;5.00;;;;;27.04;44.54;100537.50;4995033;28;51171;-57
2021/07/24 07:52:33;;;;;;;;;6.25;4.50;;;;;27.04;44.56;100534.72;4998031;28;51293;-57
2021/07/24 07:54:59;;;;;;;;;7.50;5.25;;;;;27.04;44.21;100523.59;4985600;28;51368;-57
2021/07/24 07:57:25;;;;;;;;;7.75;5.00;;;;;27.05;43.89;100533.59;4989009;28;52549;-56
2021/07/24 07:59:53;;;;;;;;;5.00;4.00;;;;;27.06;43.91;100528.88;4999104;28;51268;-56
2021/07/24 08:02:18;;;;;;;;;7.25;5.25;;;;;27.06;43.70;100528.88;4995487;28;51059;-57
2021/07/24 08:04:44;;;;;;;;;5.50;5.50;;;;;27.08;43.47;100530.28;4998627;28;51259;-58
2021/07/24 08:07:09;;;;;;;;;5.75;5.75;;;;;27.09;43.88;100522.75;4995851;28;51502;-57
2021/07/24 08:09:35;;;;;;;;;6.00;5.50;;;;;27.10;44.03;100521.69;4998347;28;51471;-57
2021/07/24 08:12:00;;;;;;;;;4.75;3.75;;;;;27.11;43.61;100524.19;4991860;28;51476;-57
2021/07/24 08:14:25;;;;;;;;;6.00;4.75;;;;;27.12;43.68;100523.06;4997608;28;51847;-57
2021/07/24 08:16:51;;;;;;;;;2.50;2.00;;;;;27.14;43.31;100522.78;4998162;28;51050;-57
2021/07/24 08:19:16;;;;;;;;;4.00;4.00;;;;;27.15;44.10;100527.25;4997133;28;51182;-57
2021/07/24 08:21:41;;;;;;;;;5.00;4.25;;;;;27.16;43.28;100515.00;5002296;28;51771;-57
2021/07/24 08:24:07;;;;;;;;;5.50;3.00;;;;;27.18;43.26;100532.25;4996343;28;52324;-56
2021/07/24 08:26:32;;;;;;;;;4.25;4.25;;;;;27.19;43.55;100523.63;4995027;28;50968;-57
2021/07/24 08:28:57;;;;;;;;;3.50;3.50;;;;;27.19;43.33;100526.41;4992418;28;51071;-54
2021/07/24 08:31:23;;;;;;;;;4.75;4.00;;;;;27.19;43.26;100526.41;4995282;28;50955;-56
2021/07/24 08:33:48;;;;;;;;;4.50;4.50;;;;;27.21;43.66;100527.00;4995581;28;52918;-56
2021/07/24 08:36:13;;;;;;;;;4.00;4.00;;;;;27.22;43.31;100522.25;4997081;28;51083;-54
2021/07/24 08:38:39;;;;;;;;;6.00;4.00;;;;;27.22;42.87;100513.91;4985530;28;50979;-55
2021/07/24 08:41:04;;;;;;;;;5.00;4.50;;;;;27.22;43.09;100508.34;4992833;28;51161;-54
2021/07/24 08:43:30;;;;;;;;;6.50;4.75;;;;;27.24;43.58;100508.91;4997089;28;52153;-55
2021/07/24 08:45:56;;;;;;;;;8.25;4.00;;;;;27.24;43.04;100500.56;4994139;28;51133;-52
2021/07/24 08:48:22;;;;;;;;;6.50;4.50;;;;;27.25;42.98;100502.22;4996375;28;51223;-52
2021/07/24 08:50:49;;;;;;;;;5.25;3.00;;;;;27.26;43.27;100498.34;4990496;28;51067;-54
2021/07/24 08:53:20;;;;;;;;;7.75;5.25;;;;;27.28;43.18;100501.66;5020934;28;51194;-53
2021/07/24 08:55:46;;;;;;;;;4.75;4.25;;;;;27.29;43.33;100506.13;4997100;28;51398;-53
2021/07/24 08:58:13;;;;;;;;;4.00;4.00;;;;;27.30;43.43;100499.44;4997271;28;51032;-54
2021/07/24 09:00:38;;;;;;;;;8.00;5.25;;;;;27.31;43.83;100501.13;4997216;28;51064;-54
2021/07/24 09:03:04;;;;;;;;;7.00;4.25;;;;;27.32;43.83;100503.63;4996975;28;51019;-54
2021/07/24 09:05:31;;;;;;;;;5.75;3.50;;;;;27.34;43.20;100506.13;4997184;28;51237;-54
2021/07/24 09:07:57;;;;;;;;;7.00;6.00;;;;;27.35;43.11;100512.53;4997097;28;51094;-54
2021/07/24 09:10:23;;;;;;;;;4.25;2.25;;;;;27.35;43.80;100506.97;4996978;28;51182;-53
2021/07/24 09:12:49;;;;;;;;;6.50;5.50;;;;;27.35;43.58;100518.94;4985644;28;51877;-53
2021/07/24 09:15:17;;;;;;;;;5.25;4.75;;;;;27.37;43.20;100513.09;4977185;28;51333;-54
2021/07/24 09:17:43;;;;;;;;;8.00;7.50;;;;;27.38;43.57;100506.41;4977324;28;51085;-53
2021/07/24 09:20:10;;;;;;;;;3.75;3.75;;;;;27.38;43.74;100509.19;4976426;28;51044;-53
2021/07/24 09:22:40;;;;;;;;;6.75;6.75;;;;;27.39;43.16;100496.94;4977022;28;50984;-53
2021/07/24 09:25:20;;;;;;;;;5.75;4.50;;;;;27.39;43.78;100506.13;4976738;28;51000;-52
2021/07/24 09:27:46;;;;;;;;;4.00;4.00;;;;;27.40;43.60;100505.00;4976907;28;51035;-52
2021/07/24 09:30:23;;;;;;;;;3.25;3.25;;;;;27.41;43.17;100517.84;4976919;28;50976;-53
2021/07/24 09:33:01;;;;;;;;;7.00;6.00;;;;;27.42;43.26;100508.38;4976751;28;51181;-54
2021/07/24 09:35:55;;;;;;;;;6.00;4.25;;;;;27.43;43.23;100504.47;4977091;28;51502;-54
2021/07/24 09:38:32;;;;;;;;;4.25;4.25;;;;;27.44;43.03;100508.94;4976736;28;51453;-55
2021/07/24 09:41:00;;;;;;;;;6.00;3.50;;;;;27.45;43.36;100502.25;4976993;28;51068;-54
2021/07/24 09:43:39;;;;;;;;;4.75;3.50;;;;;27.45;43.52;100501.41;4976610;28;51849;-53
2021/07/24 09:46:13;;;;;;;;;5.50;5.00;;;;;27.45;42.74;100496.69;4976576;28;50932;-55
2021/07/24 09:48:49;;;;;;;;;3.00;3.00;;;;;27.47;43.28;100508.38;4976311;28;50970;-54
2021/07/24 09:51:33;;;;;;;;;4.00;4.00;;;;;27.47;43.14;100515.88;4976823;28;50964;-54
2021/07/24 09:53:58;;;;;;;;;6.25;5.25;;;;;27.48;43.67;100509.19;4980008;28;51066;-54
2021/07/24 09:56:39;;;;;;;;;5.50;5.50;;;;;27.49;43.32;100519.22;4995775;28;51020;-55
2021/07/24 09:59:24;;;;;;;;;3.00;3.00;;;;;27.49;42.99;100513.66;4996098;28;51051;-53
2021/07/24 10:01:59;;;;;;;;;4.75;4.25;;;;;27.50;42.91;100516.16;4996093;28;51190;-55
2021/07/24 10:04:32;;;;;;;;;4.00;4.00;;;;;27.51;43.20;100522.53;4995803;28;51136;-54
2021/07/24 10:07:09;;;;;;;;;4.25;3.00;;;;;27.51;43.46;100515.06;4996109;28;51447;-54
2021/07/24 10:09:40;;;;;;;;;6.00;5.00;;;;;27.51;43.28;100511.41;4996357;28;51152;-54
2021/07/24 10:12:09;;;;;;;;;6.75;5.00;;;;;27.53;43.52;100520.34;4996042;28;51197;-54
2021/07/24 10:14:39;;;;;;;;;2.50;2.50;;;;;27.53;43.15;100532.31;4995464;28;51039;-53
2021/07/24 10:17:05;;;;;;;;;4.75;4.25;;;;;27.52;43.24;100522.28;4995532;28;51004;-55
2021/07/24 10:19:31;;;;;;;;;5.25;4.25;;;;;27.53;43.72;100535.09;4995483;28;51139;-55
2021/07/24 10:21:58;;;;;;;;;3.00;2.00;;;;;27.55;43.78;100534.81;4995814;28;51265;-54
2021/07/24 10:24:24;;;;;;;;;3.50;3.00;;;;;27.55;43.50;100518.13;4995409;28;51138;-54
2021/07/24 10:27:05;;;;;;;;;5.50;5.50;;;;;27.56;43.15;100526.19;4995244;28;51342;-53
2021/07/24 10:29:41;;;;;;;;;4.00;3.25;;;;;27.56;43.35;100520.63;4995112;28;51020;-52
2021/07/24 10:32:12;;;;;;;;;5.00;5.00;;;;;27.56;43.33;100508.66;4993924;28;51111;-54
2021/07/24 10:34:48;;;;;;;;;4.75;3.25;;;;;27.57;43.18;100521.44;4992375;28;52094;-55
2021/07/24 10:37:41;;;;;;;;;4.00;4.00;;;;;27.57;43.09;100505.59;4991523;28;50945;-53
2021/07/24 10:40:30;;;;;;;;;5.25;3.25;;;;;27.59;43.43;100506.13;4993636;28;52148;-56
2021/07/24 10:42:56;;;;;;;;;5.75;4.00;;;;;27.58;43.44;100501.69;4978794;28;51282;-56
2021/07/24 10:45:33;;;;;;;;;4.00;4.00;;;;;27.59;44.00;100510.88;4984651;28;51103;-56
2021/07/24 10:48:13;;;;;;;;;3.00;2.00;;;;;27.59;43.68;100506.13;4992800;28;51696;-57
2021/07/24 10:50:54;;;;;;;;;8.25;5.75;;;;;27.61;43.62;100501.13;4990579;28;51309;-55
2021/07/24 10:53:21;;;;;;;;;3.00;2.25;;;;;27.61;42.91;100501.13;4989030;28;51338;-56
2021/07/24 10:55:51;;;;;;;;;5.00;4.50;;;;;27.63;42.52;100492.53;4986120;28;52012;-55
2021/07/24 10:58:22;;;;;;;;;6.25;3.75;;;;;27.64;41.77;100491.41;4992149;28;51187;-56
2021/07/24 11:00:50;;;;;;;;;3.50;3.25;;;;;27.63;41.76;100488.91;4984015;28;51234;-56
2021/07/24 11:03:37;;;;;;;;;5.25;3.75;;;;;27.63;41.99;100494.47;4994258;28;52217;-57
2021/07/24 11:06:23;;;;;;;;;3.75;2.00;;;;;27.61;41.94;100490.00;4993901;28;51217;-58
2021/07/24 11:08:57;;;;;;;;;2.00;2.00;;;;;27.61;41.77;100486.38;4993255;28;51277;-55
2021/07/24 11:11:42;;;;;;;;;3.00;3.00;;;;;27.58;41.49;100485.00;4999640;28;51019;-56
2021/07/24 11:14:28;;;;;;;;;4.25;4.25;;;;;27.59;40.94;100491.41;4982998;28;50954;-56
2021/07/24 11:17:05;;;;;;;;;3.00;3.00;;;;;27.58;40.89;100495.28;4978386;28;50986;-55
2021/07/24 11:19:32;;;;;;;;;3.50;3.50;;;;;27.57;40.56;100504.75;4993333;28;51418;-54
2021/07/24 11:22:08;;;;;;;;;2.25;2.25;;;;;27.56;41.17;100515.06;4989735;28;51099;-57
2021/07/24 11:24:33;;;;;;;;;3.00;2.75;;;;;27.54;40.90;100506.16;4973890;28;51165;-56
2021/07/24 11:26:59;;;;;;;;;4.75;3.00;;;;;27.54;41.44;100500.59;4984832;28;51059;-54